createdAt,value
2023-01-22T00:01:01.402Z,98.21
2023-01-22T00:02:05.796Z,98.21
2023-01-22T00:03:09.852Z,98.21
2023-01-22T00:04:13.909Z,98.22
2023-01-22T00:05:18.198Z,98.22
2023-01-22T00:06:22.332Z,98.25
2023-01-22T00:07:26.631Z,98.26
2023-01-22T00:08:30.738Z,98.26
2023-01-22T00:09:34.879Z,98.23
2023-01-22T00:10:39.013Z,98.25
2023-01-22T00:11:43.203Z,98.27
2023-01-22T00:12:47.471Z,98.26
2023-01-22T00:13:51.602Z,98.18
2023-01-22T00:14:55.775Z,98.28
2023-01-22T00:16:00.133Z,98.25
2023-01-22T00:17:04.149Z,98.27
2023-01-22T00:18:08.349Z,98.30
2023-01-22T00:19:12.547Z,98.30
2023-01-22T00:20:17.235Z,98.29
2023-01-22T00:21:20.940Z,98.30
2023-01-22T00:22:25.207Z,98.31
2023-01-22T00:23:29.429Z,98.31
2023-01-22T00:24:33.669Z,98.33
2023-01-22T00:25:37.788Z,98.36
2023-01-22T00:26:41.943Z,98.36
2023-01-22T00:27:46.146Z,98.39
2023-01-22T00:28:50.442Z,98.41
2023-01-22T00:29:54.581Z,98.42
2023-01-22T00:30:58.942Z,98.42
2023-01-22T00:32:03.063Z,98.36
2023-01-22T00:33:07.265Z,98.45
2023-01-22T00:34:11.418Z,98.46
2023-01-22T00:35:16.537Z,98.50
2023-01-22T00:36:20.331Z,98.51
2023-01-22T00:37:24.518Z,98.54
2023-01-22T00:38:28.678Z,98.54
2023-01-22T00:39:32.965Z,98.55
2023-01-22T00:40:37.083Z,98.54
2023-01-22T00:41:41.382Z,98.60
2023-01-22T00:42:45.390Z,98.61
2023-01-22T00:43:52.527Z,98.62
2023-01-22T00:44:53.870Z,98.64
2023-01-22T00:45:58.021Z,98.66
2023-01-22T00:47:02.242Z,98.69
2023-01-22T00:48:06.499Z,98.71
2023-01-22T00:49:10.667Z,98.73
2023-01-22T00:50:14.915Z,98.77
2023-01-22T00:51:19.085Z,98.77
2023-01-22T00:52:37.225Z,98.79
2023-01-22T00:53:40.316Z,98.81
2023-01-22T00:54:44.415Z,98.82
2023-01-22T00:55:48.689Z,98.86
2023-01-22T00:56:52.756Z,98.86
2023-01-22T00:57:56.933Z,98.88
2023-01-22T00:59:01.112Z,98.88
2023-01-22T01:00:05.241Z,98.98
2023-01-22T01:01:09.571Z,98.91
2023-01-22T01:02:13.830Z,98.94
2023-01-22T01:03:17.859Z,98.94
2023-01-22T01:04:22.067Z,98.96
2023-01-22T01:05:26.220Z,98.96
2023-01-22T01:06:30.393Z,98.95
2023-01-22T01:07:34.543Z,98.96
2023-01-22T01:08:38.651Z,98.96
2023-01-22T01:09:42.924Z,98.99
2023-01-22T01:10:47.024Z,98.99
2023-01-22T01:11:51.274Z,98.99
2023-01-22T01:12:55.594Z,99.03
2023-01-22T01:13:59.628Z,99.07
2023-01-22T01:15:03.834Z,99.13
2023-01-22T01:16:08.132Z,99.11
2023-01-22T01:17:12.233Z,99.13
2023-01-22T01:18:16.376Z,99.17
2023-01-22T01:19:20.654Z,99.20
2023-01-22T01:20:24.804Z,99.23
2023-01-22T01:21:29.014Z,99.22
2023-01-22T01:22:33.163Z,99.25
2023-01-22T01:23:37.405Z,99.28
2023-01-22T01:24:41.562Z,99.29
2023-01-22T01:25:45.727Z,99.31
2023-01-22T01:26:50.025Z,99.41
2023-01-22T01:27:54.240Z,99.30
2023-01-22T01:28:58.538Z,99.37
2023-01-22T01:30:02.592Z,99.40
2023-01-22T01:31:07.220Z,99.38
2023-01-22T01:32:11.104Z,99.41
2023-01-22T01:33:15.242Z,99.40
2023-01-22T01:34:19.429Z,99.44
2023-01-22T01:35:24.389Z,99.44
2023-01-22T01:36:47.121Z,99.46
2023-01-22T01:37:32.097Z,99.46
2023-01-22T01:38:36.194Z,99.48
2023-01-22T01:39:40.351Z,99.50
2023-01-22T01:40:44.550Z,99.51
2023-01-22T01:41:48.729Z,99.56
2023-01-22T01:42:52.927Z,99.57
2023-01-22T01:43:57.115Z,99.58
2023-01-22T01:45:01.402Z,99.61
2023-01-22T01:46:05.426Z,99.63
2023-01-22T01:47:09.482Z,99.63
2023-01-22T01:48:13.736Z,99.65
2023-01-22T01:49:17.804Z,99.65
2023-01-22T01:50:22.140Z,99.69
2023-01-22T01:51:26.262Z,99.71
2023-01-22T01:52:30.401Z,99.72
2023-01-22T01:53:34.567Z,99.73
2023-01-22T01:54:38.754Z,99.75
2023-01-22T01:55:42.917Z,99.73
2023-01-22T01:56:47.133Z,99.73
2023-01-22T01:57:51.276Z,99.74
2023-01-22T01:58:55.475Z,99.74
2023-01-22T01:59:59.657Z,99.70
2023-01-22T02:01:09.517Z,99.70
2023-01-22T02:02:08.179Z,99.70
2023-01-22T02:03:12.266Z,99.69
2023-01-22T02:04:16.436Z,99.68
2023-01-22T02:05:20.619Z,99.69
2023-01-22T02:06:24.858Z,99.69
2023-01-22T02:07:29.054Z,99.69
2023-01-22T02:08:33.241Z,99.69
2023-01-22T02:09:37.412Z,99.72
2023-01-22T02:10:41.650Z,99.72
2023-01-22T02:11:45.829Z,99.76
2023-01-22T02:12:50.086Z,99.80
2023-01-22T02:13:54.365Z,99.81
2023-01-22T02:14:58.499Z,99.83
2023-01-22T02:16:02.604Z,99.86
2023-01-22T02:17:06.817Z,99.88
2023-01-22T02:18:11.262Z,99.90
2023-01-22T02:19:15.219Z,99.91
2023-01-22T02:20:19.644Z,99.94
2023-01-22T02:21:26.594Z,99.96
2023-01-22T02:22:29.865Z,100.00
2023-01-22T02:23:34.015Z,100.00
2023-01-22T02:24:38.102Z,100.00
2023-01-22T02:25:42.314Z,100.00
2023-01-22T02:26:46.508Z,100.00
2023-01-22T02:27:50.590Z,100.00
2023-01-22T02:28:54.902Z,99.99
2023-01-22T02:29:59.085Z,100.00
2023-01-22T02:31:03.297Z,99.99
2023-01-22T02:32:07.390Z,99.96
2023-01-22T02:33:11.745Z,99.96
2023-01-22T02:34:15.990Z,99.96
2023-01-22T02:35:20.039Z,99.92
2023-01-22T02:36:24.371Z,99.88
2023-01-22T02:37:28.512Z,99.87
2023-01-22T02:38:32.653Z,99.85
2023-01-22T02:39:36.840Z,99.81
2023-01-22T02:40:41.086Z,99.77
2023-01-22T02:41:45.311Z,99.70
2023-01-22T02:42:49.348Z,99.62
2023-01-22T02:43:53.582Z,99.61
2023-01-22T02:44:57.860Z,99.52
2023-01-22T02:46:02.152Z,99.46
2023-01-22T02:47:06.157Z,99.38
2023-01-22T02:48:10.379Z,99.31
2023-01-22T02:49:14.630Z,99.24
2023-01-22T02:50:19.165Z,99.15
2023-01-22T02:51:23.056Z,99.10
2023-01-22T02:52:27.255Z,99.02
2023-01-22T02:53:31.384Z,98.91
2023-01-22T02:54:35.697Z,98.84
2023-01-22T02:55:39.917Z,98.73
2023-01-22T02:56:44.029Z,98.61
2023-01-22T02:57:48.400Z,98.54
2023-01-22T02:58:52.506Z,98.43
2023-01-22T02:59:56.700Z,98.33
2023-01-22T03:01:00.941Z,98.26
2023-01-22T03:02:05.107Z,98.24
2023-01-22T03:03:09.246Z,98.16
2023-01-22T03:04:13.536Z,98.11
2023-01-22T03:05:17.744Z,98.05
2023-01-22T03:06:22.124Z,97.99
2023-01-22T03:07:26.028Z,97.90
2023-01-22T03:08:30.232Z,97.83
2023-01-22T03:09:34.505Z,97.75
2023-01-22T03:10:38.674Z,97.66
2023-01-22T03:11:42.825Z,97.65
2023-01-22T03:12:47.081Z,97.59
2023-01-22T03:13:51.190Z,97.51
2023-01-22T03:14:55.532Z,97.41
2023-01-22T03:15:59.755Z,97.33
2023-01-22T03:17:03.908Z,97.25
2023-01-22T03:18:08.053Z,97.17
2023-01-22T03:19:12.364Z,97.16
2023-01-22T03:20:16.940Z,97.04
2023-01-22T03:21:20.828Z,96.98
2023-01-22T03:22:25.171Z,96.91
2023-01-22T03:23:29.270Z,96.85
2023-01-22T03:24:33.446Z,96.78
2023-01-22T03:25:37.571Z,96.73
2023-01-22T03:26:41.746Z,96.67
2023-01-22T03:27:45.914Z,96.57
2023-01-22T03:28:50.143Z,96.51
2023-01-22T03:29:54.452Z,96.43
2023-01-22T03:30:58.716Z,96.37
2023-01-22T03:32:02.883Z,96.31
2023-01-22T03:33:07.004Z,96.25
2023-01-22T03:34:11.201Z,96.17
2023-01-22T03:35:15.410Z,96.09
2023-01-22T03:36:19.710Z,96.05
2023-01-22T03:37:23.872Z,96.02
2023-01-22T03:38:28.170Z,95.96
2023-01-22T03:39:32.148Z,95.88
2023-01-22T03:40:36.424Z,95.81
2023-01-22T03:41:40.584Z,95.77
2023-01-22T03:42:44.749Z,95.70
2023-01-22T03:43:48.937Z,95.64
2023-01-22T03:44:53.188Z,95.64
2023-01-22T03:45:57.515Z,95.56
2023-01-22T03:47:01.551Z,95.53
2023-01-22T03:48:05.827Z,95.50
2023-01-22T03:49:09.951Z,95.46
2023-01-22T03:50:14.160Z,95.44
2023-01-22T03:51:18.423Z,95.40
2023-01-22T03:52:22.513Z,95.34
2023-01-22T03:53:26.687Z,95.33
2023-01-22T03:54:31.007Z,95.30
2023-01-22T03:55:35.058Z,95.29
2023-01-22T03:56:39.321Z,95.27
2023-01-22T03:57:43.478Z,95.26
2023-01-22T03:58:47.766Z,95.26
2023-01-22T03:59:52.305Z,95.25
2023-01-22T04:00:56.289Z,95.24
2023-01-22T04:02:00.518Z,95.24
2023-01-22T04:03:04.580Z,95.27
2023-01-22T04:04:08.761Z,95.28
2023-01-22T04:05:12.945Z,95.26
2023-01-22T04:06:17.197Z,95.25
2023-01-22T04:07:21.315Z,95.25
2023-01-22T04:08:25.494Z,95.26
2023-01-22T04:09:29.787Z,95.26
2023-01-22T04:10:34.013Z,95.29
2023-01-22T04:11:38.238Z,95.33
2023-01-22T04:12:42.405Z,95.31
2023-01-22T04:13:46.618Z,95.28
2023-01-22T04:14:50.736Z,95.32
2023-01-22T04:15:54.918Z,95.32
2023-01-22T04:16:59.169Z,95.31
2023-01-22T04:18:03.352Z,95.29
2023-01-22T04:19:07.547Z,95.29
2023-01-22T04:20:11.815Z,95.28
2023-01-22T04:21:16.017Z,95.31
2023-01-22T04:22:20.200Z,95.35
2023-01-22T04:23:24.505Z,95.35
2023-01-22T04:24:28.589Z,95.36
2023-01-22T04:25:32.790Z,95.38
2023-01-22T04:26:37.117Z,95.40
2023-01-22T04:27:41.241Z,95.41
2023-01-22T04:28:45.406Z,95.42
2023-01-22T04:29:49.589Z,95.40
2023-01-22T04:30:53.978Z,95.40
2023-01-22T04:31:58.019Z,95.49
2023-01-22T04:33:02.268Z,95.46
2023-01-22T04:34:06.402Z,95.44
2023-01-22T04:35:10.694Z,95.44
2023-01-22T04:36:17.889Z,95.45
2023-01-22T04:37:21.120Z,95.48
2023-01-22T04:38:25.266Z,95.49
2023-01-22T04:39:29.442Z,95.52
2023-01-22T04:40:33.652Z,95.53
2023-01-22T04:41:37.912Z,95.54
2023-01-22T04:42:42.247Z,95.53
2023-01-22T04:43:46.262Z,95.53
2023-01-22T04:44:50.509Z,95.57
2023-01-22T04:45:54.705Z,95.59
2023-01-22T04:46:58.848Z,95.64
2023-01-22T04:48:03.142Z,95.68
2023-01-22T04:49:07.373Z,95.70
2023-01-22T04:50:17.861Z,95.72
2023-01-22T04:51:20.427Z,95.73
2023-01-22T04:52:24.498Z,95.77
2023-01-22T04:53:28.708Z,95.78
2023-01-22T04:54:32.880Z,95.80
2023-01-22T04:55:37.119Z,95.84
2023-01-22T04:56:41.314Z,95.88
2023-01-22T04:57:51.463Z,95.90
2023-01-22T04:58:49.846Z,95.91
2023-01-22T04:59:53.887Z,95.96
2023-01-22T05:00:58.143Z,95.97
2023-01-22T05:02:02.367Z,95.98
2023-01-22T05:03:06.551Z,96.01
2023-01-22T05:04:24.777Z,96.03
2023-01-22T05:05:27.825Z,96.09
2023-01-22T05:06:31.935Z,96.05
2023-01-22T05:07:36.176Z,96.11
2023-01-22T05:08:40.328Z,96.12
2023-01-22T05:09:44.540Z,96.14
2023-01-22T05:10:48.764Z,96.16
2023-01-22T05:11:52.893Z,96.14
2023-01-22T05:12:57.160Z,96.16
2023-01-22T05:14:01.443Z,96.17
2023-01-22T05:15:12.116Z,96.27
2023-01-22T05:16:09.700Z,96.18
2023-01-22T05:17:13.946Z,96.20
2023-01-22T05:18:18.130Z,96.22
2023-01-22T05:19:36.322Z,96.23
2023-01-22T05:20:39.111Z,96.32
2023-01-22T05:21:57.388Z,96.30
2023-01-22T05:23:00.403Z,96.31
2023-01-22T05:24:04.459Z,96.31
2023-01-22T05:25:08.637Z,96.33
2023-01-22T05:26:12.811Z,96.33
2023-01-22T05:27:17.029Z,96.33
2023-01-22T05:28:21.179Z,96.37
2023-01-22T05:29:25.513Z,96.36
2023-01-22T05:30:29.681Z,96.38
2023-01-22T05:31:34.091Z,96.39
2023-01-22T05:32:38.062Z,96.41
2023-01-22T05:33:42.343Z,96.43
2023-01-22T05:34:46.519Z,96.40
2023-01-22T05:35:50.676Z,96.40
2023-01-22T05:36:54.883Z,96.39
2023-01-22T05:37:59.195Z,96.42
2023-01-22T05:39:03.399Z,96.40
2023-01-22T05:40:07.606Z,96.41
2023-01-22T05:41:25.807Z,96.42
2023-01-22T05:42:28.978Z,96.42
2023-01-22T05:43:33.305Z,96.45
2023-01-22T05:44:37.492Z,96.43
2023-01-22T05:45:41.582Z,96.42
2023-01-22T05:46:45.737Z,96.42
2023-01-22T05:47:49.970Z,96.40
2023-01-22T05:48:54.223Z,96.38
2023-01-22T05:49:58.454Z,96.35
2023-01-22T05:51:02.716Z,96.29
2023-01-22T05:52:06.818Z,96.28
2023-01-22T05:53:11.041Z,96.26
2023-01-22T05:54:15.237Z,96.22
2023-01-22T05:55:19.433Z,96.18
2023-01-22T05:56:23.594Z,96.19
2023-01-22T05:57:27.751Z,96.15
2023-01-22T05:58:31.945Z,96.10
2023-01-22T05:59:36.099Z,96.05
2023-01-22T06:00:40.397Z,95.97
2023-01-22T06:01:44.555Z,95.97
2023-01-22T06:02:48.751Z,95.95
2023-01-22T06:03:52.929Z,95.93
2023-01-22T06:04:57.154Z,95.90
2023-01-22T06:06:01.327Z,95.86
2023-01-22T06:07:05.450Z,95.81
2023-01-22T06:08:09.723Z,95.81
2023-01-22T06:09:13.902Z,95.81
2023-01-22T06:10:18.315Z,95.79
2023-01-22T06:11:22.263Z,95.79
2023-01-22T06:12:26.431Z,95.79
2023-01-22T06:13:30.712Z,95.79
2023-01-22T06:14:34.844Z,95.75
2023-01-22T06:15:39.075Z,95.73
2023-01-22T06:16:43.466Z,95.73
2023-01-22T06:17:47.435Z,95.69
2023-01-22T06:18:51.789Z,95.68
2023-01-22T06:19:55.949Z,95.71
2023-01-22T06:21:00.150Z,95.63
2023-01-22T06:22:04.259Z,95.59
2023-01-22T06:23:08.432Z,95.55
2023-01-22T06:24:12.675Z,95.54
2023-01-22T06:25:16.818Z,95.55
2023-01-22T06:26:21.021Z,95.53
2023-01-22T06:27:25.190Z,95.52
2023-01-22T06:28:29.370Z,95.50
2023-01-22T06:29:33.555Z,95.49
2023-01-22T06:30:37.817Z,95.48
2023-01-22T06:31:42.081Z,95.51
2023-01-22T06:32:46.243Z,95.53
2023-01-22T06:33:50.307Z,95.47
2023-01-22T06:34:54.708Z,95.50
2023-01-22T06:35:58.774Z,95.52
2023-01-22T06:37:02.928Z,95.52
2023-01-22T06:38:07.089Z,95.51
2023-01-22T06:39:11.312Z,95.48
2023-01-22T06:40:15.714Z,95.48
2023-01-22T06:41:19.741Z,95.45
2023-01-22T06:42:23.973Z,95.33
2023-01-22T06:43:28.144Z,95.45
2023-01-22T06:44:32.315Z,95.48
2023-01-22T06:45:36.520Z,95.51
2023-01-22T06:46:40.728Z,95.53
2023-01-22T06:47:44.828Z,95.52
2023-01-22T06:48:55.039Z,95.45
2023-01-22T06:49:53.367Z,95.56
2023-01-22T06:50:57.609Z,95.56
2023-01-22T06:52:01.656Z,95.55
2023-01-22T06:53:05.858Z,95.57
2023-01-22T06:54:10.015Z,95.58
2023-01-22T06:55:14.212Z,95.60
2023-01-22T06:56:18.346Z,95.65
2023-01-22T06:57:22.644Z,95.65
2023-01-22T06:58:26.827Z,95.68
2023-01-22T06:59:30.984Z,95.71
2023-01-22T07:00:35.272Z,95.71
2023-01-22T07:01:39.497Z,95.72
2023-01-22T07:02:43.642Z,95.71
2023-01-22T07:03:47.986Z,95.71
2023-01-22T07:04:52.080Z,95.73
2023-01-22T07:05:56.376Z,95.77
2023-01-22T07:07:00.515Z,95.78
2023-01-22T07:08:04.672Z,95.76
2023-01-22T07:09:08.894Z,95.79
2023-01-22T07:10:13.045Z,95.83
2023-01-22T07:11:17.188Z,95.87
2023-01-22T07:12:21.592Z,95.89
2023-01-22T07:13:25.727Z,95.94
2023-01-22T07:14:36.777Z,95.96
2023-01-22T07:15:34.097Z,96.02
2023-01-22T07:16:38.370Z,96.05
2023-01-22T07:17:42.630Z,96.08
2023-01-22T07:18:46.788Z,96.12
2023-01-22T07:19:50.993Z,96.16
2023-01-22T07:20:55.280Z,96.17
2023-01-22T07:21:59.545Z,96.34
2023-01-22T07:23:03.679Z,96.38
2023-01-22T07:24:07.782Z,96.41
2023-01-22T07:25:11.961Z,96.48
2023-01-22T07:26:16.247Z,96.50
2023-01-22T07:27:20.393Z,96.57
2023-01-22T07:28:24.574Z,96.61
2023-01-22T07:29:28.732Z,96.66
2023-01-22T07:30:32.990Z,96.67
2023-01-22T07:31:37.189Z,96.72
2023-01-22T07:32:41.351Z,96.75
2023-01-22T07:33:45.572Z,96.77
2023-01-22T07:34:49.827Z,96.80
2023-01-22T07:35:54.073Z,96.85
2023-01-22T07:36:58.265Z,96.88
2023-01-22T07:38:02.473Z,96.93
2023-01-22T07:39:06.479Z,96.94
2023-01-22T07:40:10.693Z,96.95
2023-01-22T07:41:25.412Z,96.98
2023-01-22T07:42:19.045Z,96.99
2023-01-22T07:43:23.288Z,97.01
2023-01-22T07:44:27.484Z,97.02
2023-01-22T07:45:34.659Z,97.04
2023-01-22T07:46:38.053Z,97.05
2023-01-22T07:47:42.127Z,97.05
2023-01-22T07:48:46.324Z,97.05
2023-01-22T07:49:50.499Z,97.06
2023-01-22T07:50:54.795Z,97.09
2023-01-22T07:51:58.918Z,97.15
2023-01-22T07:53:03.073Z,97.17
2023-01-22T07:54:07.523Z,97.17
2023-01-22T07:55:11.609Z,97.22
2023-01-22T07:56:15.764Z,97.27
2023-01-22T07:57:19.895Z,97.29
2023-01-22T07:58:24.073Z,97.34
2023-01-22T07:59:28.250Z,97.37
2023-01-22T08:00:32.619Z,97.42
2023-01-22T08:01:36.711Z,97.45
2023-01-22T08:02:41.026Z,97.50
2023-01-22T08:03:45.350Z,97.54
2023-01-22T08:04:49.471Z,97.58
2023-01-22T08:05:53.668Z,97.60
2023-01-22T08:06:57.867Z,97.62
2023-01-22T08:08:02.031Z,97.66
2023-01-22T08:09:06.215Z,97.69
2023-01-22T08:10:10.547Z,97.72
2023-01-22T08:11:14.599Z,97.75
2023-01-22T08:12:18.777Z,97.79
2023-01-22T08:13:22.988Z,97.80
2023-01-22T08:14:27.170Z,97.85
2023-01-22T08:15:31.403Z,97.85
2023-01-22T08:16:35.774Z,97.81
2023-01-22T08:17:39.789Z,97.89
2023-01-22T08:18:44.016Z,97.93
2023-01-22T08:19:48.188Z,97.96
2023-01-22T08:20:52.482Z,97.98
2023-01-22T08:21:56.630Z,98.00
2023-01-22T08:23:00.811Z,98.01
2023-01-22T08:24:04.978Z,98.03
2023-01-22T08:25:09.155Z,98.04
2023-01-22T08:26:13.374Z,98.05
2023-01-22T08:27:17.499Z,98.08
2023-01-22T08:28:21.660Z,98.08
2023-01-22T08:29:25.856Z,98.08
2023-01-22T08:30:30.124Z,98.13
2023-01-22T08:31:34.535Z,98.14
2023-01-22T08:32:38.599Z,98.16
2023-01-22T08:33:42.697Z,98.17
2023-01-22T08:34:46.930Z,98.19
2023-01-22T08:35:51.128Z,98.21
2023-01-22T08:36:55.444Z,98.24
2023-01-22T08:37:59.599Z,98.21
2023-01-22T08:39:03.957Z,98.16
2023-01-22T08:40:08.079Z,98.18
2023-01-22T08:41:12.253Z,98.17
2023-01-22T08:42:16.563Z,98.18
2023-01-22T08:43:20.696Z,98.18
2023-01-22T08:44:24.909Z,98.20
2023-01-22T08:45:29.135Z,98.20
2023-01-22T08:46:33.294Z,98.21
2023-01-22T08:47:37.440Z,98.22
2023-01-22T08:48:41.549Z,98.25
2023-01-22T08:49:45.757Z,98.27
2023-01-22T08:50:53.026Z,98.30
2023-01-22T08:51:56.184Z,98.33
2023-01-22T08:53:00.313Z,98.33
2023-01-22T08:54:04.531Z,98.34
2023-01-22T08:55:08.596Z,98.28
2023-01-22T08:56:12.786Z,98.30
2023-01-22T08:57:17.019Z,98.30
2023-01-22T08:58:21.288Z,98.28
2023-01-22T08:59:25.323Z,98.28
2023-01-22T09:00:29.561Z,98.30
2023-01-22T09:01:33.763Z,98.30
2023-01-22T09:02:37.940Z,98.32
2023-01-22T09:03:42.089Z,98.44
2023-01-22T09:04:46.288Z,98.39
2023-01-22T09:05:50.477Z,98.40
2023-01-22T09:06:54.649Z,98.42
2023-01-22T09:07:58.941Z,98.41
2023-01-22T09:09:03.086Z,98.42
2023-01-22T09:10:07.283Z,98.42
2023-01-22T09:11:11.426Z,98.46
2023-01-22T09:12:15.944Z,98.49
2023-01-22T09:13:20.030Z,98.47
2023-01-22T09:14:29.575Z,98.42
2023-01-22T09:15:28.715Z,98.41
2023-01-22T09:16:32.773Z,98.41
2023-01-22T09:17:37.003Z,98.43
2023-01-22T09:18:41.141Z,98.45
2023-01-22T09:19:45.342Z,98.47
2023-01-22T09:20:49.470Z,98.46
2023-01-22T09:21:53.728Z,98.47
2023-01-22T09:22:57.914Z,98.44
2023-01-22T09:24:03.033Z,98.56
2023-01-22T09:25:06.924Z,98.49
2023-01-22T09:26:11.084Z,98.52
2023-01-22T09:27:15.372Z,98.55
2023-01-22T09:28:19.565Z,98.54
2023-01-22T09:29:23.779Z,98.52
2023-01-22T09:30:28.004Z,98.51
2023-01-22T09:31:32.433Z,98.48
2023-01-22T09:32:36.479Z,98.47
2023-01-22T09:33:40.803Z,98.49
2023-01-22T09:34:45.269Z,98.52
2023-01-22T09:35:49.448Z,98.48
2023-01-22T09:36:53.575Z,98.50
2023-01-22T09:37:57.776Z,98.48
2023-01-22T09:39:02.057Z,98.43
2023-01-22T09:40:06.434Z,98.42
2023-01-22T09:41:10.622Z,98.44
2023-01-22T09:42:14.834Z,98.49
2023-01-22T09:43:19.070Z,98.54
2023-01-22T09:44:23.303Z,98.60
2023-01-22T09:45:27.501Z,98.68
2023-01-22T09:46:31.666Z,98.75
2023-01-22T09:47:35.938Z,98.85
2023-01-22T09:48:40.126Z,98.91
2023-01-22T09:49:44.287Z,98.96
2023-01-22T09:50:48.492Z,98.95
2023-01-22T09:51:52.719Z,98.91
2023-01-22T09:52:56.897Z,98.86
2023-01-22T09:54:01.181Z,98.83
2023-01-22T09:55:05.273Z,98.80
2023-01-22T09:56:09.484Z,98.72
2023-01-22T09:57:26.465Z,98.70
2023-01-22T09:58:17.932Z,98.68
2023-01-22T09:59:22.120Z,98.69
2023-01-22T10:00:26.330Z,98.67
2023-01-22T10:01:30.541Z,98.63
2023-01-22T10:02:34.827Z,98.60
2023-01-22T10:03:39.263Z,98.55
2023-01-22T10:04:43.234Z,98.43
2023-01-22T10:05:47.466Z,98.38
2023-01-22T10:06:51.599Z,98.32
2023-01-22T10:07:55.922Z,98.26
2023-01-22T10:09:00.191Z,98.20
2023-01-22T10:10:04.293Z,98.14
2023-01-22T10:11:08.482Z,98.13
2023-01-22T10:12:12.668Z,98.06
2023-01-22T10:13:16.916Z,98.03
2023-01-22T10:14:21.106Z,97.95
2023-01-22T10:15:25.239Z,97.83
2023-01-22T10:16:29.576Z,97.79
2023-01-22T10:17:33.735Z,97.77
2023-01-22T10:18:38.007Z,97.75
2023-01-22T10:19:42.371Z,97.78
2023-01-22T10:20:46.406Z,97.79
2023-01-22T10:21:50.595Z,97.79
2023-01-22T10:22:54.776Z,97.81
2023-01-22T10:23:58.957Z,97.80
2023-01-22T10:25:03.227Z,97.81
2023-01-22T10:26:07.373Z,97.77
2023-01-22T10:27:11.538Z,97.76
2023-01-22T10:28:15.746Z,97.69
2023-01-22T10:29:20.004Z,97.62
2023-01-22T10:30:24.232Z,97.61
2023-01-22T10:31:28.470Z,97.58
2023-01-22T10:32:32.518Z,97.60
2023-01-22T10:33:36.686Z,97.59
2023-01-22T10:34:40.971Z,97.59
2023-01-22T10:35:45.257Z,97.56
2023-01-22T10:36:49.439Z,97.51
2023-01-22T10:37:53.636Z,97.50
2023-01-22T10:38:57.751Z,97.46
2023-01-22T10:40:02.087Z,97.46
2023-01-22T10:41:06.194Z,97.48
2023-01-22T10:42:10.377Z,97.54
2023-01-22T10:43:14.676Z,97.60
2023-01-22T10:44:18.877Z,97.50
2023-01-22T10:45:23.049Z,97.45
2023-01-22T10:46:27.422Z,97.52
2023-01-22T10:47:31.459Z,97.44
2023-01-22T10:48:35.659Z,97.51
2023-01-22T10:49:39.842Z,97.54
2023-01-22T10:50:44.010Z,97.54
2023-01-22T10:51:48.303Z,97.50
2023-01-22T10:52:52.367Z,97.43
2023-01-22T10:53:56.717Z,97.42
2023-01-22T10:55:00.813Z,97.41
2023-01-22T10:56:04.985Z,97.36
2023-01-22T10:57:09.239Z,97.31
2023-01-22T10:59:22.423Z,97.23
2023-01-22T11:00:26.453Z,97.33
2023-01-22T11:01:30.751Z,97.35
2023-01-22T11:02:34.903Z,97.37
2023-01-22T11:03:39.087Z,97.36
2023-01-22T11:04:43.244Z,97.36
2023-01-22T11:05:47.468Z,97.41
2023-01-22T11:06:51.798Z,97.42
2023-01-22T11:07:55.809Z,97.47
2023-01-22T11:09:00.141Z,97.52
2023-01-22T11:10:04.261Z,97.50
2023-01-22T11:11:08.556Z,97.48
2023-01-22T11:12:12.699Z,97.50
2023-01-22T11:13:16.871Z,97.55
2023-01-22T11:14:21.110Z,97.55
2023-01-22T11:15:25.365Z,97.59
2023-01-22T11:16:29.651Z,97.64
2023-01-22T11:17:33.839Z,97.70
2023-01-22T11:18:38.225Z,97.71
2023-01-22T11:19:44.597Z,97.71
2023-01-22T11:20:46.448Z,97.71
2023-01-22T11:21:50.691Z,97.72
2023-01-22T11:22:54.996Z,97.68
2023-01-22T11:23:59.045Z,97.66
2023-01-22T11:25:03.262Z,97.65
2023-01-22T11:26:07.357Z,97.64
2023-01-22T11:27:17.679Z,97.63
2023-01-22T11:28:20.559Z,97.54
2023-01-22T11:29:24.669Z,97.48
2023-01-22T11:30:29.298Z,97.57
2023-01-22T11:31:33.194Z,97.56
2023-01-22T11:32:37.337Z,97.53
2023-01-22T11:33:41.527Z,97.50
2023-01-22T11:34:45.692Z,97.46
2023-01-22T11:35:49.875Z,97.42
2023-01-22T11:36:54.148Z,97.42
2023-01-22T11:38:01.603Z,97.42
2023-01-22T11:39:04.728Z,97.38
2023-01-22T11:40:08.986Z,97.35
2023-01-22T11:41:27.165Z,97.37
2023-01-22T11:42:30.167Z,97.34
2023-01-22T11:43:34.387Z,97.30
2023-01-22T11:44:38.558Z,97.29
2023-01-22T11:45:42.694Z,97.30
2023-01-22T11:46:46.774Z,97.32
2023-01-22T11:47:51.014Z,97.31
2023-01-22T11:48:55.290Z,97.34
2023-01-22T11:49:59.509Z,97.39
2023-01-22T11:51:03.750Z,97.39
2023-01-22T11:52:07.961Z,97.33
2023-01-22T11:53:12.242Z,97.38
2023-01-22T11:54:16.304Z,97.39
2023-01-22T11:55:20.543Z,97.40
2023-01-22T11:56:24.726Z,97.33
2023-01-22T11:57:28.898Z,97.31
2023-01-22T11:58:34.134Z,97.31
2023-01-22T11:59:37.895Z,97.31
2023-01-22T12:00:42.116Z,97.28
2023-01-22T12:01:46.328Z,97.28
2023-01-22T12:02:50.562Z,97.26
2023-01-22T12:03:54.731Z,97.21
2023-01-22T12:04:58.887Z,97.16
2023-01-22T12:06:03.111Z,97.17
2023-01-22T12:07:07.314Z,97.15
2023-01-22T12:08:11.495Z,97.07
2023-01-22T12:09:21.565Z,97.15
2023-01-22T12:10:20.312Z,97.21
2023-01-22T12:11:24.067Z,97.28
2023-01-22T12:12:29.281Z,97.31
2023-01-22T12:13:33.108Z,97.26
2023-01-22T12:14:37.290Z,97.18
2023-01-22T12:15:41.505Z,97.09
2023-01-22T12:16:45.651Z,97.00
2023-01-22T12:18:03.975Z,96.96
2023-01-22T12:19:06.656Z,96.93
2023-01-22T12:20:10.699Z,96.87
2023-01-22T12:21:14.968Z,96.84
2023-01-22T12:22:19.108Z,96.81
2023-01-22T12:23:23.376Z,96.78
2023-01-22T12:24:30.508Z,96.77
2023-01-22T12:25:33.974Z,96.80
2023-01-22T12:26:38.072Z,96.81
2023-01-22T12:27:42.312Z,96.86
2023-01-22T12:28:46.454Z,96.92
2023-01-22T12:29:50.675Z,97.00
2023-01-22T12:30:54.943Z,97.04
2023-01-22T12:31:59.010Z,97.07
2023-01-22T12:33:05.258Z,97.10
2023-01-22T12:34:07.365Z,97.15
2023-01-22T12:35:12.631Z,97.19
2023-01-22T12:36:16.496Z,97.24
2023-01-22T12:37:20.627Z,97.23
2023-01-22T12:38:24.878Z,97.27
2023-01-22T12:39:28.992Z,97.31
2023-01-22T12:40:33.257Z,97.42
2023-01-22T12:41:37.536Z,97.59
2023-01-22T12:42:41.516Z,97.60
2023-01-22T12:43:45.802Z,97.76
2023-01-22T12:44:50.126Z,97.84
2023-01-22T12:45:54.247Z,97.99
2023-01-22T12:46:58.477Z,98.17
2023-01-22T12:48:02.794Z,98.34
2023-01-22T12:49:06.969Z,98.50
2023-01-22T12:50:11.154Z,98.64
2023-01-22T12:51:15.506Z,98.79
2023-01-22T12:52:19.545Z,98.88
2023-01-22T12:53:23.819Z,98.98
2023-01-22T12:54:28.014Z,99.09
2023-01-22T12:55:32.159Z,99.17
2023-01-22T12:56:36.467Z,99.26
2023-01-22T12:57:40.714Z,99.32
2023-01-22T12:58:44.748Z,99.41
2023-01-22T12:59:48.976Z,99.45
2023-01-22T13:00:53.196Z,99.53
2023-01-22T13:01:57.420Z,99.58
2023-01-22T13:03:01.539Z,99.61
2023-01-22T13:04:05.640Z,99.61
2023-01-22T13:05:09.918Z,99.64
2023-01-22T13:06:20.203Z,99.66
2023-01-22T13:07:22.970Z,99.69
2023-01-22T13:08:27.282Z,99.75
2023-01-22T13:09:31.283Z,99.82
2023-01-22T13:10:35.628Z,99.85
2023-01-22T13:11:39.808Z,99.90
2023-01-22T13:12:44.199Z,99.90
2023-01-22T13:13:48.217Z,99.95
2023-01-22T13:14:52.418Z,99.99
2023-01-22T13:15:56.607Z,100.00
2023-01-22T13:17:00.743Z,100.00
2023-01-22T13:18:07.464Z,100.00
2023-01-22T13:19:09.145Z,100.00
2023-01-22T13:20:13.347Z,100.00
2023-01-22T13:21:17.612Z,100.00
2023-01-22T13:22:21.816Z,100.00
2023-01-22T13:23:25.989Z,100.00
2023-01-22T13:24:30.163Z,100.00
2023-01-22T13:25:34.492Z,100.00
2023-01-22T13:26:38.585Z,100.00
2023-01-22T13:27:42.776Z,100.00
2023-01-22T13:28:47.205Z,100.00
2023-01-22T13:29:51.195Z,100.00
2023-01-22T13:30:55.441Z,100.00
2023-01-22T13:31:59.737Z,100.00
2023-01-22T13:33:03.866Z,100.00
2023-01-22T13:34:08.071Z,100.00
2023-01-22T13:35:12.339Z,100.00
2023-01-22T13:36:16.490Z,100.00
2023-01-22T13:37:20.684Z,100.00
2023-01-22T13:38:24.872Z,100.00
2023-01-22T13:39:28.947Z,100.00
2023-01-22T13:40:46.369Z,100.00
2023-01-22T13:41:37.392Z,100.00
2023-01-22T13:42:41.763Z,100.00
2023-01-22T13:43:46.097Z,100.00
2023-01-22T13:44:50.471Z,100.00
2023-01-22T13:45:55.352Z,100.00
2023-01-22T13:46:59.073Z,100.00
2023-01-22T13:48:04.034Z,100.00
2023-01-22T13:49:07.523Z,100.00